createdAt,value
2019-06-27T04:04:02.481Z,15.58075
2019-06-27T04:07:30.422Z,15.681458
2019-06-27T04:10:58.382Z,15.812378
2019-06-27T04:14:26.356Z,15.802307
2019-06-27T04:17:54.508Z,15.84259
2019-06-27T04:21:22.453Z,15.83252
2019-06-27T04:24:50.408Z,15.762024
2019-06-27T04:28:18.395Z,15.731812
2019-06-27T04:31:46.371Z,15.762024
2019-06-27T04:35:14.341Z,15.812378
2019-06-27T04:38:42.312Z,15.721741
2019-06-27T04:42:10.264Z,15.802307
2019-06-27T04:45:38.231Z,15.83252
2019-06-27T04:49:06.196Z,15.882874
2019-06-27T04:52:37.138Z,15.852661
2019-06-27T04:56:05.086Z,15.913086
2019-06-27T04:59:51.714Z,15.933228
2019-06-27T05:03:07.946Z,15.933228
2019-06-27T05:06:35.915Z,16.003723
2019-06-27T05:10:03.888Z,15.993652
2019-06-27T05:13:31.843Z,15.852661
2019-06-27T05:16:59.816Z,15.913086
2019-06-27T05:20:27.851Z,16.003723
2019-06-27T05:23:55.822Z,15.983582
2019-06-27T05:27:23.800Z,15.953369
2019-06-27T05:30:52.756Z,15.96344
2019-06-27T05:34:20.717Z,16.144714
2019-06-27T05:37:48.663Z,16.104431
2019-06-27T05:41:16.625Z,16.033936
2019-06-27T05:44:44.592Z,16.023865
2019-06-27T05:48:12.553Z,16.033936
2019-06-27T05:51:40.499Z,16.033936
2019-06-27T05:55:08.469Z,16.064148
2019-06-27T05:58:36.426Z,16.09436
2019-06-27T06:02:04.406Z,16.09436
2019-06-27T06:05:33.367Z,16.08429
2019-06-27T06:09:01.342Z,16.08429
2019-06-27T06:12:29.294Z,16.134644
2019-06-27T06:16:00.811Z,16.245422
2019-06-27T06:19:28.186Z,16.275635
2019-06-27T06:22:56.142Z,16.164856
2019-06-27T06:26:24.102Z,16.205139
2019-06-27T06:29:52.052Z,16.315918
2019-06-27T06:33:20.015Z,16.396484
2019-06-27T06:36:47.972Z,16.456909
2019-06-27T06:40:15.936Z,16.315918
2019-06-27T06:43:43.898Z,16.366272
2019-06-27T06:47:11.863Z,16.386414
2019-06-27T06:50:39.824Z,16.416626
2019-06-27T06:54:07.776Z,16.547546
2019-06-27T06:57:35.736Z,16.567688
2019-06-27T07:01:03.699Z,16.607971
2019-06-27T07:04:31.646Z,16.607971
2019-06-27T07:07:59.633Z,16.698608
2019-06-27T07:11:27.581Z,16.769104
2019-06-27T07:14:55.550Z,16.920166
2019-06-27T07:18:24.517Z,16.950378
2019-06-27T07:21:52.458Z,16.980591
2019-06-27T07:25:20.424Z,16.819458
2019-06-27T07:28:48.390Z,16.799316
2019-06-27T07:32:16.353Z,16.819458
2019-06-27T07:35:44.301Z,16.910095
2019-06-27T07:39:12.259Z,17.10144
2019-06-27T07:42:40.225Z,17.252502
2019-06-27T07:46:23.954Z,17.373352
2019-06-27T07:49:43.068Z,17.393494
2019-06-27T07:53:11.027Z,17.393494
2019-06-27T07:56:38.998Z,17.34314
2019-06-27T08:00:08.927Z,17.312927
2019-06-27T08:03:36.890Z,17.312927
2019-06-27T08:07:04.864Z,17.252502
2019-06-27T08:10:32.828Z,17.433777
2019-06-27T08:14:00.781Z,17.413635
2019-06-27T08:17:28.736Z,17.453918
2019-06-27T08:20:57.695Z,17.524414
2019-06-27T08:24:25.666Z,17.504272
2019-06-27T08:27:56.578Z,17.534485
2019-06-27T08:31:24.544Z,17.715759
2019-06-27T08:34:52.493Z,17.806396
2019-06-27T08:38:20.452Z,17.967529
2019-06-27T08:41:48.510Z,18.017883
2019-06-27T08:45:16.456Z,18.078308
2019-06-27T08:48:44.419Z,18.179016
2019-06-27T08:52:12.392Z,18.299866
2019-06-27T08:55:40.345Z,18.410645
2019-06-27T08:59:08.307Z,18.450928
2019-06-27T09:02:36.264Z,18.571777
2019-06-27T09:06:04.210Z,18.763123
2019-06-27T09:09:32.183Z,18.934326
2019-06-27T09:13:00.138Z,19.065247
2019-06-27T09:16:28.090Z,19.186096
2019-06-27T09:19:56.053Z,19.306946
2019-06-27T09:23:24.016Z,19.306946
2019-06-27T09:26:51.964Z,19.226379
2019-06-27T09:30:19.931Z,19.367371
2019-06-27T09:33:47.904Z,19.317017
2019-06-27T09:37:15.860Z,19.498291
2019-06-27T09:40:43.805Z,19.558716
2019-06-27T09:44:11.770Z,19.377441
2019-06-27T09:47:39.737Z,19.347229
2019-06-27T09:51:07.683Z,19.266663
2019-06-27T09:54:35.650Z,19.347229
2019-06-27T09:58:03.605Z,19.377441
2019-06-27T10:01:31.569Z,19.256592
2019-06-27T10:04:59.535Z,19.155884
2019-06-27T10:08:27.479Z,19.145813
2019-06-27T10:11:55.440Z,19.165955
2019-06-27T10:15:23.410Z,19.296875
2019-06-27T10:18:51.372Z,19.377441
2019-06-27T10:22:20.346Z,19.48822
2019-06-27T10:25:48.329Z,19.629211
2019-06-27T10:29:16.271Z,19.669495
2019-06-27T10:32:57.549Z,19.719849
2019-06-27T10:36:19.135Z,19.709778
2019-06-27T10:39:47.240Z,19.840698
2019-06-27T10:43:15.169Z,19.901123
2019-06-27T10:46:43.126Z,19.901123
2019-06-27T10:50:11.082Z,19.901123
2019-06-27T10:53:39.028Z,19.901123
2019-06-27T10:57:06.985Z,20.052185
2019-06-27T11:00:34.954Z,19.99176
2019-06-27T11:04:02.895Z,20.082397
2019-06-27T11:07:30.861Z,20.193176
2019-06-27T11:10:59.798Z,20.263672
2019-06-27T11:14:27.745Z,20.223389
2019-06-27T11:17:55.712Z,20.303955
2019-06-27T11:21:23.682Z,20.4953
2019-06-27T11:24:51.626Z,20.676575
2019-06-27T11:28:19.593Z,20.666504
2019-06-27T11:31:47.567Z,20.696716
2019-06-27T11:35:16.522Z,20.706787
2019-06-27T11:38:44.500Z,20.646362
2019-06-27T11:42:12.485Z,20.575867
2019-06-27T11:45:40.449Z,20.646362
2019-06-27T11:49:09.387Z,20.767212
2019-06-27T11:52:37.347Z,20.898132
2019-06-27T11:56:06.295Z,20.817566
2019-06-27T11:59:34.332Z,20.737
2019-06-27T12:03:02.212Z,20.696716
2019-06-27T12:06:30.186Z,20.626221
2019-06-27T12:09:58.141Z,20.626221
2019-06-27T12:13:26.097Z,20.626221
2019-06-27T12:16:54.074Z,20.636292
2019-06-27T12:20:22.051Z,20.696716
2019-06-27T12:23:50.024Z,20.555725
2019-06-27T12:27:18.003Z,20.374451
2019-06-27T12:30:45.959Z,20.394592
2019-06-27T12:34:14.900Z,20.515442
2019-06-27T12:37:42.888Z,20.4953
2019-06-27T12:41:10.846Z,20.676575
2019-06-27T12:44:38.806Z,20.767212
2019-06-27T12:48:07.757Z,20.847778
2019-06-27T12:51:35.710Z,20.918274
2019-06-27T12:55:03.671Z,20.918274
2019-06-27T12:58:31.619Z,21.039124
2019-06-27T13:01:59.582Z,21.129761
2019-06-27T13:05:27.553Z,21.139832
2019-06-27T13:08:55.495Z,21.049194
2019-06-27T13:12:24.466Z,21.069336
2019-06-27T13:15:52.443Z,21.190186
2019-06-27T13:19:20.405Z,21.280823
2019-06-27T13:22:48.380Z,21.351318
2019-06-27T13:26:16.322Z,21.280823
2019-06-27T13:29:44.281Z,21.220398
2019-06-27T13:33:12.226Z,21.139832
2019-06-27T13:36:40.183Z,21.008911
2019-06-27T13:40:08.146Z,20.847778
2019-06-27T13:43:36.105Z,20.797424
2019-06-27T13:47:04.071Z,20.817566
2019-06-27T13:50:32.043Z,20.888062
2019-06-27T13:54:00.987Z,20.918274
2019-06-27T13:57:28.942Z,20.968628
2019-06-27T14:00:56.916Z,20.847778
2019-06-27T14:04:24.876Z,20.726929
2019-06-27T14:07:52.861Z,20.666504
2019-06-27T14:11:20.812Z,20.726929
2019-06-27T14:14:59.058Z,20.877991
2019-06-27T14:18:22.668Z,20.898132
2019-06-27T14:21:50.628Z,20.888062
2019-06-27T14:25:20.550Z,20.797424
2019-06-27T14:28:48.520Z,20.646362
2019-06-27T14:32:16.500Z,20.485229
2019-06-27T14:35:44.479Z,20.485229
2019-06-27T14:39:12.425Z,20.706787
2019-06-27T14:42:40.389Z,20.918274
2019-06-27T14:46:08.352Z,20.877991
2019-06-27T14:49:36.304Z,20.898132
2019-06-27T14:53:04.266Z,20.74707
2019-06-27T14:56:32.234Z,20.676575
2019-06-27T15:00:00.196Z,20.636292
2019-06-27T15:03:28.172Z,20.737
2019-06-27T15:06:58.464Z,20.827637
2019-06-27T15:10:26.099Z,20.847778
2019-06-27T15:13:54.047Z,20.797424
2019-06-27T15:17:22.013Z,20.737
2019-06-27T15:20:49.981Z,20.797424
2019-06-27T15:24:17.932Z,20.767212
2019-06-27T15:27:45.907Z,20.817566
2019-06-27T15:31:13.903Z,20.797424
2019-06-27T15:34:43.816Z,20.877991
2019-06-27T15:38:11.771Z,21.049194
2019-06-27T15:41:39.815Z,21.079407
2019-06-27T15:45:07.785Z,21.039124
2019-06-27T15:48:35.729Z,20.948486
2019-06-27T15:52:03.690Z,20.898132
2019-06-27T15:55:31.673Z,20.737
2019-06-27T15:59:03.340Z,20.666504
2019-06-27T16:02:29.674Z,20.545654
2019-06-27T16:06:08.437Z,20.525513
2019-06-27T16:09:32.517Z,20.575867
2019-06-27T16:13:02.539Z,20.626221
2019-06-27T16:16:29.432Z,20.636292
2019-06-27T16:19:57.414Z,20.575867
2019-06-27T16:23:25.357Z,20.4953
2019-06-27T16:26:53.317Z,20.374451
2019-06-27T16:30:21.276Z,20.344238
2019-06-27T16:33:49.238Z,20.414734
2019-06-27T16:37:17.183Z,20.344238
2019-06-27T16:40:45.153Z,20.324097
2019-06-27T16:44:13.125Z,20.414734
2019-06-27T16:47:41.076Z,20.444946
2019-06-27T16:51:10.062Z,20.394592
2019-06-27T16:54:38.012Z,20.374451
2019-06-27T16:58:05.969Z,20.223389
2019-06-27T17:01:33.940Z,20.253601
2019-06-27T17:05:01.892Z,20.334167
2019-06-27T17:08:31.731Z,20.344238
2019-06-27T17:12:02.175Z,20.36438
2019-06-27T17:15:30.788Z,20.324097
2019-06-27T17:18:59.197Z,20.173035
2019-06-27T17:22:28.674Z,20.082397
2019-06-27T17:25:58.031Z,20.042114
2019-06-27T17:29:27.247Z,20.052185
2019-06-27T17:32:56.422Z,20.183105
2019-06-27T17:36:26.224Z,20.263672
2019-06-27T17:39:54.797Z,20.273743
2019-06-27T17:43:23.329Z,20.293884
2019-06-27T17:46:52.657Z,20.273743
2019-06-27T17:50:20.623Z,20.334167
2019-06-27T17:53:49.578Z,20.334167
2019-06-27T17:57:17.526Z,20.263672
2019-06-27T18:00:45.516Z,20.173035
2019-06-27T18:04:13.488Z,20.233459
2019-06-27T18:07:41.476Z,20.263672
2019-06-27T18:11:09.480Z,20.273743
2019-06-27T18:14:37.465Z,20.173035
2019-06-27T18:18:06.422Z,20.142822
2019-06-27T18:21:34.430Z,20.052185
2019-06-27T18:25:02.427Z,20.052185
2019-06-27T18:28:30.423Z,19.931335
2019-06-27T18:31:58.382Z,19.921265
2019-06-27T18:35:26.412Z,19.810486
2019-06-27T18:38:54.428Z,19.770203
2019-06-27T18:42:22.375Z,19.619141
2019-06-27T18:45:50.383Z,19.528503
2019-06-27T18:49:18.380Z,19.407654
2019-06-27T18:52:46.344Z,19.367371
2019-06-27T18:56:14.361Z,19.256592
2019-06-27T18:59:42.432Z,19.186096
2019-06-27T19:03:10.439Z,19.075317
2019-06-27T19:06:38.405Z,19.014893
2019-06-27T19:10:06.451Z,18.974609
2019-06-27T19:13:35.399Z,18.823547
2019-06-27T19:17:04.396Z,18.813477
2019-06-27T19:20:32.396Z,18.712769
2019-06-27T19:24:00.363Z,18.642273
2019-06-27T19:27:29.308Z,18.561707
2019-06-27T19:30:58.187Z,18.511353
2019-06-27T19:34:27.133Z,18.511353
2019-06-27T19:38:01.729Z,18.450928
2019-06-27T19:41:27.538Z,18.460999
2019-06-27T19:44:55.530Z,18.48114
2019-06-27T19:48:24.390Z,18.460999
2019-06-27T19:51:52.451Z,18.460999
2019-06-27T19:55:20.433Z,18.420715
2019-06-27T19:58:48.425Z,18.239441
2019-06-27T20:02:16.461Z,18.179016
2019-06-27T20:05:44.410Z,18.027954
2019-06-27T20:09:12.552Z,18.048096
2019-06-27T20:12:41.534Z,17.987671
2019-06-27T20:16:09.507Z,17.876892
2019-06-27T20:19:37.493Z,17.776184
2019-06-27T20:23:05.450Z,17.786255
2019-06-27T20:26:33.406Z,17.756042
2019-06-27T20:30:01.421Z,17.756042
2019-06-27T20:33:29.559Z,17.72583
2019-06-27T20:36:57.959Z,17.756042
2019-06-27T20:40:26.278Z,17.756042
2019-06-27T20:43:55.161Z,17.72583
2019-06-27T20:47:23.191Z,17.715759
2019-06-27T20:50:51.342Z,17.715759
2019-06-27T20:54:19.333Z,17.705688
2019-06-27T20:57:47.325Z,17.72583
2019-06-27T21:01:15.423Z,17.715759
2019-06-27T21:04:43.392Z,17.685547
2019-06-27T21:08:11.369Z,17.615051
2019-06-27T21:11:39.312Z,17.544556
2019-06-27T21:15:07.279Z,17.504272
2019-06-27T21:18:35.342Z,17.494202
2019-06-27T21:22:03.328Z,17.47406
2019-06-27T21:25:31.251Z,17.463989
2019-06-27T21:28:59.215Z,17.463989
2019-06-27T21:32:31.272Z,17.433777
2019-06-27T21:35:57.111Z,17.34314
2019-06-27T21:39:25.068Z,17.312927
2019-06-27T21:42:53.031Z,17.22229
2019-06-27T21:46:20.988Z,17.192078
2019-06-27T21:49:48.941Z,17.161865
2019-06-27T21:53:16.905Z,17.161865
2019-06-27T21:56:44.849Z,17.202148
